Time;durP1;ratioP1;P1;durP2;ratioP2;P2;SDS_P1;SDS_P2;PMS_P1;PMS_P2;Temp;Humidity;BMP_temperature;BMP_pressure;BME280_temperature;BME280_humidity;BME280_pressure;Samples;Min_cycle;Max_cycle;Signal;HPM_P1;HPM_P2
2022/07/06 00:00:04;;;;;;;1.90;1.00;;;19.70;99.90;;;;;;5017572;28;20185;-75
2022/07/06 00:02:30;;;;;;;3.08;0.90;;;19.60;99.90;;;;;;5013493;28;20205;-75
2022/07/06 00:04:57;;;;;;;1.75;0.80;;;19.60;99.90;;;;;;5011261;28;20324;-75
2022/07/06 00:07:23;;;;;;;2.03;1.27;;;19.60;99.90;;;;;;5011596;28;20273;-75
2022/07/06 00:09:49;;;;;;;8.95;1.42;;;19.60;99.90;;;;;;5011108;28;21022;-75
2022/07/06 00:12:15;;;;;;;1.02;0.60;;;19.60;99.90;;;;;;5011823;28;20184;-75
2022/07/06 00:14:40;;;;;;;2.88;0.80;;;19.60;99.90;;;;;;5011200;28;20243;-75
2022/07/06 00:17:06;;;;;;;1.00;0.80;;;19.50;99.90;;;;;;5011349;28;20209;-75
2022/07/06 00:19:32;;;;;;;2.03;0.95;;;19.50;99.90;;;;;;5010977;28;20244;-77
2022/07/06 00:21:57;;;;;;;1.20;0.85;;;19.40;99.90;;;;;;5011811;28;20205;-75
2022/07/06 00:24:23;;;;;;;1.95;0.88;;;19.50;99.90;;;;;;5011553;28;20207;-75
2022/07/06 00:26:48;;;;;;;1.70;1.15;;;19.40;99.90;;;;;;5010864;28;20307;-76
2022/07/06 00:29:14;;;;;;;4.90;1.10;;;19.40;99.90;;;;;;5010915;28;20236;-75
2022/07/06 00:31:39;;;;;;;2.85;0.93;;;19.40;99.90;;;;;;4993392;28;20212;-75
2022/07/06 00:34:05;;;;;;;3.13;1.00;;;19.40;99.90;;;;;;5011063;28;20208;-75
2022/07/06 00:36:31;;;;;;;5.07;1.02;;;19.30;99.90;;;;;;5037210;23;20212;-77
2022/07/06 00:38:56;;;;;;;5.65;1.10;;;19.40;99.90;;;;;;5042618;28;20283;-77
2022/07/06 00:41:22;;;;;;;1.77;1.23;;;19.30;99.90;;;;;;5034613;28;20208;-76
2022/07/06 00:43:50;;;;;;;3.53;0.80;;;19.30;99.90;;;;;;5034736;28;20223;-77
2022/07/06 00:46:15;;;;;;;2.42;0.85;;;19.20;99.90;;;;;;5033425;28;20210;-78
2022/07/06 00:48:41;;;;;;;1.63;0.77;;;19.30;99.90;;;;;;5034184;28;20188;-76
2022/07/06 00:51:06;;;;;;;3.58;1.10;;;19.30;99.90;;;;;;5035117;28;20181;-76
2022/07/06 00:53:32;;;;;;;2.00;0.77;;;19.30;99.90;;;;;;5033468;28;20212;-76
2022/07/06 00:55:58;;;;;;;2.92;1.25;;;19.20;99.90;;;;;;5034535;28;20295;-76
2022/07/06 00:58:24;;;;;;;5.78;1.45;;;19.10;99.90;;;;;;5016120;28;20311;-75
2022/07/06 01:00:50;;;;;;;1.40;1.10;;;19.20;99.90;;;;;;5034377;28;20212;-75
2022/07/06 01:03:15;;;;;;;3.50;1.13;;;19.20;99.90;;;;;;5034800;28;20270;-77
2022/07/06 01:05:41;;;;;;;3.42;1.13;;;19.20;99.90;;;;;;5034134;28;20201;-77
2022/07/06 01:08:07;;;;;;;4.40;1.23;;;19.10;99.90;;;;;;5033949;28;20219;-76
2022/07/06 01:10:32;;;;;;;2.83;1.00;;;19.10;99.90;;;;;;5016303;28;20208;-76
2022/07/06 01:12:58;;;;;;;4.50;1.25;;;19.10;99.90;;;;;;5016416;28;20211;-78
2022/07/06 01:15:25;;;;;;;3.05;1.10;;;19.10;99.90;;;;;;5034426;28;20195;-79
2022/07/06 01:17:51;;;;;;;4.28;1.20;;;19.00;99.90;;;;;;5033830;28;20752;-76
2022/07/06 01:20:22;;;;;;;1.52;0.88;;;18.90;99.90;;;;;;5033863;28;20212;-76
2022/07/06 01:22:49;;;;;;;4.88;1.10;;;18.80;99.90;;;;;;5016486;28;20213;-78
2022/07/06 01:25:15;;;;;;;2.47;1.00;;;19.00;99.90;;;;;;5016188;28;20208;-78
2022/07/06 01:27:42;;;;;;;2.95;0.98;;;19.00;99.90;;;;;;5015782;28;20254;-78
2022/07/06 01:30:13;;;;;;;3.35;1.27;;;18.90;99.90;;;;;;5034207;28;20222;-78
2022/07/06 01:32:40;;;;;;;1.85;1.10;;;18.90;99.90;;;;;;5033624;28;20262;-78
2022/07/06 01:35:07;;;;;;;3.22;1.25;;;18.80;99.90;;;;;;5033727;28;20286;-78
2022/07/06 01:37:34;;;;;;;2.10;1.20;;;18.80;99.90;;;;;;5033482;28;20212;-78
2022/07/06 01:40:00;;;;;;;2.53;1.20;;;18.80;99.90;;;;;;5033566;28;20212;-79
2022/07/06 01:42:26;;;;;;;2.95;1.30;;;18.70;99.90;;;;;;5034298;28;20204;-79
2022/07/06 01:44:52;;;;;;;1.95;1.10;;;18.80;99.90;;;;;;5016434;28;20216;-79
2022/07/06 01:47:17;;;;;;;2.40;1.40;;;18.80;99.90;;;;;;5015460;28;20238;-79
2022/07/06 01:49:43;;;;;;;2.72;1.55;;;18.80;99.90;;;;;;5016111;28;20288;-80
2022/07/06 01:52:09;;;;;;;2.90;1.40;;;18.80;99.90;;;;;;5034196;28;20738;-79
2022/07/06 01:54:34;;;;;;;1.77;1.30;;;18.80;99.90;;;;;;5033863;28;20234;-79
2022/07/06 01:57:00;;;;;;;3.03;1.27;;;18.90;99.90;;;;;;5034177;28;20557;-79
2022/07/06 01:59:25;;;;;;;3.88;1.40;;;18.80;99.90;;;;;;5033497;28;20212;-79
2022/07/06 02:01:51;;;;;;;3.78;1.30;;;18.90;99.90;;;;;;5033947;28;20242;-79
2022/07/06 02:04:16;;;;;;;2.20;1.25;;;19.00;99.90;;;;;;5015699;28;20223;-79
2022/07/06 02:06:42;;;;;;;2.83;0.90;;;19.00;99.90;;;;;;5015697;28;20192;-79
2022/07/06 02:09:07;;;;;;;2.17;1.10;;;19.00;99.90;;;;;;5033419;28;20172;-77
2022/07/06 02:11:33;;;;;;;2.28;1.05;;;19.00;99.90;;;;;;5033259;28;20218;-78
2022/07/06 02:13:59;;;;;;;3.30;1.10;;;19.10;99.90;;;;;;5015349;28;20274;-78
2022/07/06 02:16:24;;;;;;;4.80;1.30;;;19.00;99.90;;;;;;5032880;28;20288;-78
2022/07/06 02:18:50;;;;;;;0.82;0.70;;;19.00;99.90;;;;;;5032834;28;20208;-77
2022/07/06 02:21:15;;;;;;;2.53;0.93;;;19.00;99.90;;;;;;5033646;28;20748;-78
2022/07/06 02:23:41;;;;;;;3.05;1.20;;;19.00;99.90;;;;;;5032725;28;20562;-78
2022/07/06 02:26:06;;;;;;;1.52;0.90;;;18.80;99.90;;;;;;5032847;28;20207;-78
2022/07/06 02:28:32;;;;;;;3.50;1.33;;;18.80;99.90;;;;;;5032998;28;20208;-78
2022/07/06 02:30:58;;;;;;;5.20;1.45;;;18.70;99.90;;;;;;5032954;28;20215;-78
2022/07/06 02:33:23;;;;;;;4.82;1.58;;;18.70;99.90;;;;;;5030678;28;20184;-78
2022/07/06 02:35:49;;;;;;;5.40;1.45;;;18.60;99.90;;;;;;5020731;28;20299;-78
2022/07/06 02:38:14;;;;;;;3.70;1.30;;;18.50;99.90;;;;;;5032069;28;20607;-77
2022/07/06 02:40:40;;;;;;;4.20;1.33;;;18.30;99.90;;;;;;5014493;28;20235;-78
2022/07/06 02:43:06;;;;;;;4.60;1.55;;;18.20;99.90;;;;;;5032193;28;20212;-78
2022/07/06 02:45:32;;;;;;;4.22;1.63;;;18.10;99.90;;;;;;5013001;28;20602;-77
2022/07/06 02:47:57;;;;;;;1.98;1.52;;;18.20;99.90;;;;;;5015020;28;20810;-78
2022/07/06 02:50:24;;;;;;;4.78;1.52;;;18.10;99.90;;;;;;5031783;28;20204;-77
2022/07/06 02:52:50;;;;;;;4.65;1.70;;;18.10;99.90;;;;;;5032131;28;20212;-77
2022/07/06 02:55:15;;;;;;;5.88;1.40;;;18.00;99.90;;;;;;5032179;28;20212;-77
2022/07/06 02:57:41;;;;;;;4.32;1.55;;;18.00;99.90;;;;;;5031349;28;20201;-77
2022/07/06 03:00:07;;;;;;;2.80;1.50;;;18.10;99.90;;;;;;5013937;28;20180;-77
2022/07/06 03:02:33;;;;;;;3.00;1.40;;;18.10;99.90;;;;;;5032072;28;20697;-77
2022/07/06 03:04:59;;;;;;;4.03;1.50;;;18.10;99.90;;;;;;5029542;28;20302;-78
2022/07/06 03:07:24;;;;;;;2.90;1.60;;;18.10;99.90;;;;;;5031831;28;20227;-77
2022/07/06 03:09:50;;;;;;;3.85;1.38;;;18.10;99.90;;;;;;5013924;28;20212;-77
2022/07/06 03:12:16;;;;;;;3.72;1.75;;;18.10;99.90;;;;;;5032393;28;20185;-77
2022/07/06 03:14:42;;;;;;;3.58;1.25;;;18.10;99.90;;;;;;5031745;28;20223;-77
2022/07/06 03:17:07;;;;;;;7.22;1.73;;;18.10;99.90;;;;;;5043537;28;20206;-78
2022/07/06 03:19:41;;;;;;;9.80;1.77;;;18.10;99.90;;;;;;5070845;28;20560;-76
2022/07/06 03:22:07;;;;;;;3.05;1.48;;;18.00;99.90;;;;;;5046690;28;20238;-76
2022/07/06 03:24:32;;;;;;;4.72;1.80;;;17.90;99.90;;;;;;5028223;28;20176;-76
2022/07/06 03:26:58;;;;;;;8.50;2.35;;;17.90;99.90;;;;;;5028657;28;20218;-76
2022/07/06 03:29:24;;;;;;;14.30;2.05;;;17.90;99.90;;;;;;5027759;28;20201;-76
2022/07/06 03:31:49;;;;;;;2.22;1.55;;;17.90;99.90;;;;;;5028079;28;20254;-77
2022/07/06 03:34:15;;;;;;;3.30;1.50;;;17.90;99.90;;;;;;5022716;28;20212;-78
2022/07/06 03:36:40;;;;;;;2.28;1.42;;;17.90;99.90;;;;;;5026517;28;20670;-77
2022/07/06 03:39:06;;;;;;;2.90;1.50;;;17.90;99.90;;;;;;5027446;28;20204;-77
2022/07/06 03:41:32;;;;;;;5.25;1.42;;;17.80;99.90;;;;;;5027850;28;20216;-77
2022/07/06 03:43:58;;;;;;;2.95;1.45;;;17.90;99.90;;;;;;5027980;28;20200;-77
2022/07/06 03:46:23;;;;;;;1.83;1.13;;;17.90;99.90;;;;;;5026344;28;20283;-77
2022/07/06 03:48:49;;;;;;;4.18;1.45;;;18.00;99.90;;;;;;5027758;28;20635;-76
2022/07/06 03:51:15;;;;;;;3.15;1.13;;;18.70;99.90;;;;;;5028203;28;20181;-77
2022/07/06 03:53:40;;;;;;;3.58;1.25;;;19.50;99.90;;;;;;5026494;28;20212;-77
2022/07/06 03:58:50;;;;;;;3.92;1.30;;;20.10;99.90;;;;;;5012332;28;20219;-77
2022/07/06 04:01:15;;;;;;;3.22;1.38;;;20.80;99.90;;;;;;5027660;28;20212;-77
2022/07/06 04:03:41;;;;;;;2.80;1.55;;;20.60;99.90;;;;;;5027397;28;20204;-78
2022/07/06 04:06:07;;;;;;;4.20;1.55;;;20.80;99.90;;;;;;5019702;28;20168;-78
2022/07/06 04:08:32;;;;;;;4.45;1.20;;;21.10;99.90;;;;;;5025413;28;20216;-77
2022/07/06 04:10:58;;;;;;;6.97;1.55;;;20.60;99.90;;;;;;5027394;28;20685;-77
2022/07/06 04:13:25;;;;;;;3.92;1.33;;;21.70;99.90;;;;;;5025747;28;20571;-77
2022/07/06 04:15:51;;;;;;;3.60;1.60;;;23.50;99.90;;;;;;5027132;28;20196;-76
2022/07/06 04:18:16;;;;;;;2.22;0.93;;;24.20;99.90;;;;;;5027247;28;20781;-76
2022/07/06 04:20:42;;;;;;;6.88;1.30;;;23.60;99.90;;;;;;5025689;28;20208;-78
2022/07/06 04:23:08;;;;;;;5.65;1.40;;;22.90;99.90;;;;;;5027051;28;20201;-78
2022/07/06 04:25:34;;;;;;;4.20;1.55;;;22.10;99.90;;;;;;5026858;28;20266;-77
2022/07/06 04:27:59;;;;;;;3.83;1.83;;;21.30;99.90;;;;;;5027465;28;20216;-77
2022/07/06 04:30:25;;;;;;;6.80;1.70;;;21.00;99.90;;;;;;5016415;28;20177;-77
2022/07/06 04:32:51;;;;;;;2.55;1.35;;;20.70;99.90;;;;;;5013756;28;20630;-77
2022/07/06 04:35:16;;;;;;;4.03;1.40;;;21.50;99.90;;;;;;4998775;28;20217;-78
2022/07/06 04:37:42;;;;;;;3.58;1.40;;;24.10;99.90;;;;;;5013295;28;20697;-78
2022/07/06 04:40:08;;;;;;;3.28;1.73;;;26.10;99.90;;;;;;5013718;28;20205;-78
2022/07/06 04:42:34;;;;;;;4.13;1.70;;;27.70;99.90;;;;;;5011932;28;20177;-78
2022/07/06 04:44:59;;;;;;;5.70;1.38;;;28.60;99.90;;;;;;5014325;28;20176;-77
2022/07/06 04:47:25;;;;;;;2.80;1.17;;;29.10;99.90;;;;;;5013869;28;20220;-78
2022/07/06 04:49:50;;;;;;;2.05;1.30;;;28.30;99.90;;;;;;5008817;28;20288;-77
2022/07/06 04:52:16;;;;;;;2.60;1.25;;;29.10;99.90;;;;;;5006291;28;20208;-78
2022/07/06 04:54:41;;;;;;;5.97;1.38;;;26.80;99.90;;;;;;5012797;28;20200;-78
2022/07/06 04:57:07;;;;;;;4.00;1.30;;;25.30;99.90;;;;;;5014475;28;20272;-79
2022/07/06 04:59:33;;;;;;;6.50;1.65;;;24.90;99.90;;;;;;5014874;28;20227;-78
2022/07/06 05:01:58;;;;;;;3.85;1.38;;;26.30;99.90;;;;;;5012397;28;20205;-78
2022/07/06 05:04:24;;;;;;;3.95;1.45;;;27.20;99.90;;;;;;5012412;28;20209;-78
2022/07/06 05:06:50;;;;;;;4.07;1.55;;;28.00;99.90;;;;;;5013620;28;20756;-78
2022/07/06 05:09:15;;;;;;;3.58;1.48;;;29.50;99.90;;;;;;5012472;28;20185;-79
2022/07/06 05:11:41;;;;;;;6.90;2.20;;;30.10;99.90;;;;;;5013759;28;20201;-79
2022/07/06 05:14:07;;;;;;;5.00;1.42;;;30.60;99.90;;;;;;5014335;28;20209;-78
2022/07/06 05:16:33;;;;;;;3.13;1.63;;;30.70;99.20;;;;;;5013413;28;20209;-79
2022/07/06 05:18:58;;;;;;;5.53;1.90;;;30.80;98.10;;;;;;5014834;28;20713;-80
2022/07/06 05:21:24;;;;;;;1.27;1.10;;;31.30;97.20;;;;;;5004550;28;20177;-80
2022/07/06 05:23:50;;;;;;;2.72;1.20;;;31.30;96.50;;;;;;5015411;28;20291;-80
2022/07/06 05:26:15;;;;;;;4.07;1.60;;;32.00;95.40;;;;;;5014977;28;20722;-79
2022/07/06 05:28:41;;;;;;;3.33;1.60;;;32.40;94.00;;;;;;5013130;28;20228;-80
2022/07/06 05:31:07;;;;;;;4.70;1.50;;;32.40;92.80;;;;;;5015596;28;20212;-80
2022/07/06 05:33:32;;;;;;;3.00;1.38;;;32.50;92.50;;;;;;5015681;28;20217;-80
2022/07/06 05:35:58;;;;;;;3.00;1.38;;;32.70;92.00;;;;;;5016756;28;20177;-79
2022/07/06 05:38:23;;;;;;;2.60;1.25;;;32.60;91.10;;;;;;5014146;28;20240;-80
2022/07/06 05:40:49;;;;;;;2.95;1.20;;;32.80;90.20;;;;;;5014933;28;20264;-80
2022/07/06 05:43:15;;;;;;;6.22;1.35;;;33.10;89.00;;;;;;5017133;28;20208;-81
2022/07/06 05:45:40;;;;;;;4.25;1.27;;;33.30;87.70;;;;;;5014821;28;20271;-81
2022/07/06 05:50:50;;;;;;;2.17;1.20;;;32.80;86.50;;;;;;5004902;28;20282;-78
2022/07/06 05:53:16;;;;;;;4.97;1.88;;;33.10;85.30;;;;;;5011906;28;20216;-79
2022/07/06 05:55:41;;;;;;;3.58;1.20;;;33.20;84.60;;;;;;5017140;28;20204;-79
2022/07/06 05:58:07;;;;;;;3.55;1.33;;;33.00;84.90;;;;;;5015234;28;20227;-81
2022/07/06 06:00:33;;;;;;;3.13;1.83;;;33.30;83.50;;;;;;5014098;28;20185;-80
2022/07/06 06:02:59;;;;;;;3.10;1.25;;;33.10;82.70;;;;;;5015467;28;20256;-79
2022/07/06 06:05:25;;;;;;;3.75;1.30;;;33.40;83.40;;;;;;5016072;28;20211;-80
2022/07/06 06:07:52;;;;;;;2.88;1.23;;;33.30;82.10;;;;;;5014272;28;20201;-79
2022/07/06 06:10:18;;;;;;;2.65;1.38;;;33.70;81.80;;;;;;5014034;28;20200;-79
2022/07/06 06:12:45;;;;;;;2.42;1.40;;;33.60;81.00;;;;;;5012523;28;20535;-80
2022/07/06 06:15:11;;;;;;;3.85;1.30;;;33.10;81.10;;;;;;5013622;28;20175;-79
2022/07/06 06:17:38;;;;;;;2.10;1.30;;;31.60;82.20;;;;;;5013075;28;20220;-80
2022/07/06 06:20:06;;;;;;;4.53;1.40;;;31.50;84.40;;;;;;5008721;28;20219;-79
2022/07/06 06:22:43;;;;;;;2.20;1.10;;;31.90;84.90;;;;;;5008412;28;20311;-79
2022/07/06 06:25:09;;;;;;;7.30;1.48;;;33.10;82.10;;;;;;5004038;28;20227;-79
2022/07/06 06:27:34;;;;;;;3.33;1.20;;;33.70;80.10;;;;;;5011819;28;20664;-79
2022/07/06 06:30:00;;;;;;;1.70;1.10;;;33.80;79.60;;;;;;5002755;28;20215;-80
2022/07/06 06:32:26;;;;;;;4.32;1.25;;;33.90;78.80;;;;;;5010037;28;20217;-79
2022/07/06 06:34:51;;;;;;;4.28;1.38;;;33.90;77.30;;;;;;5000842;28;20212;-79
2022/07/06 06:37:17;;;;;;;4.95;1.38;;;33.70;77.70;;;;;;5008604;28;20303;-79
2022/07/06 06:39:42;;;;;;;3.10;1.40;;;33.20;79.00;;;;;;5012072;28;20200;-79
2022/07/06 06:42:08;;;;;;;5.05;1.38;;;33.80;78.50;;;;;;5011996;28;20665;-79
2022/07/06 06:44:33;;;;;;;2.53;1.20;;;34.20;77.40;;;;;;5012720;28;20572;-78
2022/07/06 06:47:00;;;;;;;5.63;1.52;;;34.80;76.70;;;;;;4990985;28;20212;-78
2022/07/06 06:49:25;;;;;;;3.08;1.42;;;34.50;75.60;;;;;;4998364;28;20299;-78
2022/07/06 06:51:51;;;;;;;4.45;1.38;;;34.80;75.70;;;;;;5003259;28;20304;-78
2022/07/06 06:54:16;;;;;;;4.88;1.17;;;33.60;77.00;;;;;;5010237;28;20199;-78
2022/07/06 06:56:42;;;;;;;2.22;1.33;;;33.80;77.30;;;;;;5011824;28;20329;-78
2022/07/06 06:59:08;;;;;;;4.30;1.48;;;34.30;74.60;;;;;;5004698;28;20216;-78
2022/07/06 07:01:33;;;;;;;1.67;1.02;;;35.10;74.30;;;;;;5009538;28;20208;-78
2022/07/06 07:03:59;;;;;;;3.10;1.10;;;34.90;74.00;;;;;;5009148;28;20703;-78
2022/07/06 07:06:24;;;;;;;2.90;1.20;;;34.10;73.90;;;;;;5012882;28;20169;-78
2022/07/06 07:08:50;;;;;;;2.33;1.30;;;34.30;75.10;;;;;;5009040;28;20231;-78
2022/07/06 07:11:16;;;;;;;6.10;1.17;;;33.30;73.60;;;;;;5006842;28;20621;-78
2022/07/06 07:13:41;;;;;;;3.00;1.27;;;31.90;76.50;;;;;;5011358;28;20211;-78
2022/07/06 07:16:07;;;;;;;3.58;1.20;;;32.20;76.00;;;;;;5019313;28;20192;-78
2022/07/06 07:18:32;;;;;;;3.88;1.30;;;32.00;75.30;;;;;;5031965;28;20216;-78
2022/07/06 07:20:58;;;;;;;3.63;1.75;;;32.30;75.20;;;;;;5020492;28;20205;-79
2022/07/06 07:23:24;;;;;;;3.38;0.90;;;32.10;75.90;;;;;;5009949;28;20220;-78
2022/07/06 07:25:49;;;;;;;2.35;0.93;;;33.10;74.20;;;;;;5004212;28;20200;-79
2022/07/06 07:28:15;;;;;;;2.28;1.10;;;33.80;72.40;;;;;;5009526;28;20227;-79
2022/07/06 07:30:40;;;;;;;1.80;0.90;;;34.80;70.50;;;;;;5007870;28;20189;-79
2022/07/06 07:33:06;;;;;;;2.00;0.98;;;35.50;68.20;;;;;;4997992;28;20223;-80
2022/07/06 07:35:32;;;;;;;4.05;1.20;;;34.60;69.30;;;;;;5007413;28;20303;-78
2022/07/06 07:37:58;;;;;;;1.75;0.93;;;34.30;69.00;;;;;;5011969;28;20214;-78
2022/07/06 07:40:23;;;;;;;3.55;0.95;;;34.30;68.20;;;;;;5006436;28;20296;-78
2022/07/06 07:42:49;;;;;;;7.35;1.42;;;35.00;67.40;;;;;;5006005;28;20304;-79
2022/07/06 07:45:15;;;;;;;3.15;1.00;;;33.80;68.20;;;;;;5006670;28;20613;-79
2022/07/06 07:47:41;;;;;;;4.80;1.10;;;32.30;69.80;;;;;;5006815;28;20227;-78
2022/07/06 07:50:07;;;;;;;2.50;1.05;;;30.60;71.90;;;;;;5005846;28;20563;-78
2022/07/06 07:52:32;;;;;;;4.43;1.30;;;29.40;73.90;;;;;;5006093;28;20347;-76
2022/07/06 07:54:58;;;;;;;1.92;0.80;;;29.10;77.50;;;;;;5006357;28;20269;-79
2022/07/06 07:57:24;;;;;;;3.45;0.90;;;29.70;75.70;;;;;;5008144;28;20220;-80
2022/07/06 07:59:49;;;;;;;2.30;0.88;;;30.90;74.70;;;;;;4988030;28;20712;-79
2022/07/06 08:02:15;;;;;;;1.90;0.90;;;31.60;73.30;;;;;;5004895;28;20585;-81
2022/07/06 08:04:40;;;;;;;1.92;0.90;;;30.90;73.20;;;;;;5011919;28;20231;-77
2022/07/06 08:07:06;;;;;;;2.67;0.60;;;30.30;73.60;;;;;;4999359;28;20228;-80
2022/07/06 08:09:32;;;;;;;3.20;0.73;;;28.40;77.80;;;;;;5000382;28;20268;-77
2022/07/06 08:11:58;;;;;;;1.48;1.00;;;28.70;78.40;;;;;;5012551;28;20173;-81
2022/07/06 08:14:24;;;;;;;2.22;0.93;;;28.80;78.20;;;;;;5013461;28;20212;-78
2022/07/06 08:16:50;;;;;;;2.88;1.15;;;29.10;78.60;;;;;;5016498;28;20637;-80
2022/07/06 08:19:15;;;;;;;2.92;0.95;;;30.10;77.60;;;;;;5018575;28;20228;-80
2022/07/06 08:21:42;;;;;;;3.78;0.77;;;30.10;75.80;;;;;;5007221;28;20185;-79
2022/07/06 08:24:08;;;;;;;2.70;1.25;;;31.10;75.20;;;;;;5016088;28;20718;-80
2022/07/06 08:26:34;;;;;;;2.33;0.85;;;32.10;73.70;;;;;;5013666;28;20217;-79
2022/07/06 08:28:59;;;;;;;3.38;0.90;;;31.40;71.70;;;;;;5016417;28;20216;-80
2022/07/06 08:31:27;;;;;;;1.42;0.88;;;29.40;72.60;;;;;;5016860;28;20244;-80
2022/07/06 08:33:53;;;;;;;2.33;1.10;;;28.80;75.40;;;;;;5014887;28;20209;-80
2022/07/06 08:36:20;;;;;;;4.93;1.23;;;28.40;76.90;;;;;;5016949;28;20228;-81
2022/07/06 08:38:46;;;;;;;2.10;1.08;;;26.90;78.30;;;;;;5014335;28;20209;-79
2022/07/06 08:41:14;;;;;;;1.67;0.80;;;26.10;79.90;;;;;;5015053;28;20239;-78
2022/07/06 08:43:39;;;;;;;2.50;1.10;;;26.20;80.40;;;;;;5013938;28;20213;-78
2022/07/06 08:46:06;;;;;;;2.05;0.88;;;26.30;79.10;;;;;;5014435;28;20224;-77
2022/07/06 08:48:36;;;;;;;2.55;1.20;;;26.30;79.30;;;;;;5019095;28;20209;-80
2022/07/06 08:51:02;;;;;;;2.38;1.00;;;26.30;79.80;;;;;;5007215;28;20312;-79
2022/07/06 08:53:28;;;;;;;2.53;1.05;;;26.00;80.60;;;;;;5015187;28;20228;-79
2022/07/06 08:55:54;;;;;;;2.00;1.00;;;25.80;82.00;;;;;;5015381;28;20653;-77
2022/07/06 08:58:23;;;;;;;4.30;1.23;;;25.30;82.80;;;;;;5014139;28;20221;-77
2022/07/06 09:00:49;;;;;;;3.80;1.08;;;25.00;83.60;;;;;;4998717;28;20240;-76
2022/07/06 09:03:15;;;;;;;3.03;0.95;;;25.10;83.90;;;;;;5013042;28;20624;-76
2022/07/06 09:05:45;;;;;;;2.45;1.60;;;24.30;85.60;;;;;;5013853;28;20213;-81
2022/07/06 09:08:12;;;;;;;3.10;1.80;;;24.30;85.00;;;;;;5014457;28;20205;-77
2022/07/06 09:10:37;;;;;;;3.17;1.10;;;24.40;84.90;;;;;;5012874;28;20702;-77
2022/07/06 09:13:08;;;;;;;5.80;0.90;;;24.70;83.10;;;;;;4995519;28;20343;-78
2022/07/06 09:15:36;;;;;;;1.60;0.80;;;24.90;82.10;;;;;;5013231;28;20173;-78
2022/07/06 09:18:03;;;;;;;0.93;0.73;;;25.30;80.80;;;;;;5013107;28;20221;-78
2022/07/06 09:20:29;;;;;;;1.33;1.00;;;26.10;77.90;;;;;;5004435;28;20206;-78
2022/07/06 09:23:04;;;;;;;3.75;1.00;;;27.60;75.50;;;;;;5016327;28;20376;-78
2022/07/06 09:25:30;;;;;;;3.20;1.83;;;27.50;74.30;;;;;;5011877;28;20299;-78
2022/07/06 09:27:58;;;;;;;4.43;1.25;;;26.90;74.70;;;;;;5013396;28;20867;-78
2022/07/06 09:30:24;;;;;;;3.72;1.77;;;26.60;74.70;;;;;;5014055;28;20187;-78
2022/07/06 09:32:53;;;;;;;3.63;1.00;;;25.90;76.20;;;;;;5013693;28;20205;-78
2022/07/06 09:35:20;;;;;;;5.47;2.67;;;24.80;78.60;;;;;;5013488;28;20204;-78
2022/07/06 09:37:49;;;;;;;2.92;0.95;;;24.90;80.70;;;;;;5013797;28;20275;-78
2022/07/06 09:40:18;;;;;;;2.33;0.93;;;24.60;81.20;;;;;;5012745;28;20529;-78
2022/07/06 09:42:45;;;;;;;3.83;1.00;;;23.80;81.70;;;;;;5012009;28;20250;-78
2022/07/06 09:45:10;;;;;;;2.78;1.00;;;23.40;83.70;;;;;;5014523;28;20264;-78
2022/07/06 09:47:37;;;;;;;3.30;1.02;;;23.50;84.70;;;;;;5013295;28;20655;-77
2022/07/06 09:50:05;;;;;;;4.03;0.75;;;23.60;84.80;;;;;;5008097;28;20216;-78
2022/07/06 09:52:34;;;;;;;1.83;0.85;;;23.80;84.50;;;;;;5009132;28;20217;-77
2022/07/06 09:55:00;;;;;;;2.58;0.90;;;23.60;85.80;;;;;;5013114;28;20721;-77
2022/07/06 09:57:26;;;;;;;1.83;0.93;;;23.80;86.70;;;;;;5011708;28;20209;-77
2022/07/06 09:59:52;;;;;;;2.65;1.38;;;23.80;87.00;;;;;;5012645;28;20209;-78
2022/07/06 10:02:20;;;;;;;1.15;0.73;;;23.90;87.20;;;;;;5011263;28;20216;-78
2022/07/06 10:04:47;;;;;;;0.98;0.57;;;23.70;87.00;;;;;;5012532;28;20283;-77
2022/07/06 10:07:13;;;;;;;4.68;1.00;;;24.00;87.20;;;;;;5012598;28;20217;-78
2022/07/06 10:09:40;;;;;;;2.90;0.80;;;24.40;87.00;;;;;;5011540;28;20180;-77
2022/07/06 10:12:12;;;;;;;1.52;0.93;;;24.50;86.90;;;;;;5011622;28;20178;-77
2022/07/06 10:14:38;;;;;;;3.55;0.70;;;24.20;87.50;;;;;;5001804;28;20339;-77
2022/07/06 10:17:05;;;;;;;3.10;0.90;;;24.20;88.20;;;;;;5012372;28;20273;-78
2022/07/06 10:19:31;;;;;;;1.60;1.13;;;24.30;87.80;;;;;;5012270;28;20315;-77
2022/07/06 10:22:00;;;;;;;6.68;1.40;;;24.20;88.40;;;;;;5007275;28;20274;-77
2022/07/06 10:24:28;;;;;;;4.45;0.90;;;24.10;90.00;;;;;;5012915;28;20181;-77
2022/07/06 10:26:54;;;;;;;5.18;1.85;;;24.30;90.70;;;;;;5012023;28;20221;-77
2022/07/06 10:29:20;;;;;;;8.73;2.85;;;24.30;91.40;;;;;;5010586;28;20694;-77
2022/07/06 10:31:48;;;;;;;2.13;1.02;;;24.20;92.10;;;;;;5012462;28;20291;-78
2022/07/06 10:34:16;;;;;;;8.52;2.22;;;24.00;91.60;;;;;;4999338;28;20213;-77
2022/07/06 10:36:44;;;;;;;4.60;1.83;;;24.20;95.10;;;;;;4987512;28;20717;-76
2022/07/06 10:41:56;;;;;;;3.17;1.30;;;24.70;93.50;;;;;;4999040;28;20281;-78
2022/07/06 10:44:23;;;;;;;2.05;1.08;;;25.00;91.70;;;;;;4993767;28;20228;-78
2022/07/06 10:46:51;;;;;;;1.63;0.82;;;25.30;91.50;;;;;;5008386;28;20291;-78
2022/07/06 10:49:17;;;;;;;2.53;0.80;;;25.70;90.50;;;;;;5004864;28;20641;-78
2022/07/06 10:51:43;;;;;;;1.55;0.70;;;26.30;90.60;;;;;;4997365;28;20169;-76
2022/07/06 10:54:09;;;;;;;2.63;0.70;;;26.40;90.40;;;;;;4985008;28;20181;-76
2022/07/06 10:56:38;;;;;;;2.00;0.75;;;26.50;88.40;;;;;;4995290;28;20729;-75
2022/07/06 10:59:20;;;;;;;1.38;0.80;;;26.10;85.10;;;;;;5007083;28;20580;-75
2022/07/06 11:02:15;;;;;;;1.95;0.75;;;26.00;87.20;;;;;;4996474;28;20209;-80
2022/07/06 11:04:45;;;;;;;1.77;0.68;;;25.60;86.10;;;;;;5011356;28;20224;-76
2022/07/06 11:07:15;;;;;;;1.63;0.82;;;25.50;87.40;;;;;;5011125;28;20295;-78
2022/07/06 11:09:53;;;;;;;1.75;0.82;;;25.00;89.10;;;;;;5010183;28;20264;-78
2022/07/06 11:12:20;;;;;;;1.02;0.60;;;24.80;90.10;;;;;;5012398;28;20164;-77
2022/07/06 11:14:46;;;;;;;1.40;0.90;;;24.40;90.90;;;;;;5012859;28;20714;-76
2022/07/06 11:17:12;;;;;;;3.85;0.85;;;24.30;91.50;;;;;;5027810;28;20271;-78
2022/07/06 11:19:47;;;;;;;4.55;1.60;;;24.10;91.70;;;;;;5031865;28;20228;-79
2022/07/06 11:22:16;;;;;;;1.38;1.20;;;23.60;92.50;;;;;;5014412;28;20215;-74
2022/07/06 11:24:41;;;;;;;2.15;1.00;;;23.50;92.00;;;;;;5009775;28;20207;-75
2022/07/06 11:27:08;;;;;;;2.30;0.90;;;23.00;91.90;;;;;;5011481;28;20706;-75
2022/07/06 11:29:37;;;;;;;1.40;0.60;;;22.60;91.60;;;;;;5010490;28;20219;-75
2022/07/06 11:32:09;;;;;;;1.45;0.60;;;22.70;92.00;;;;;;5009978;28;20588;-75
2022/07/06 11:34:36;;;;;;;2.75;0.47;;;23.00;91.80;;;;;;5010923;28;20216;-75
2022/07/06 11:37:13;;;;;;;3.33;2.05;;;22.80;91.70;;;;;;5010559;28;20205;-75
2022/07/06 11:39:41;;;;;;;2.45;0.68;;;22.80;92.50;;;;;;5009902;28;20205;-75
2022/07/06 11:42:07;;;;;;;1.42;0.60;;;23.00;91.80;;;;;;5015416;28;20549;-75
2022/07/06 11:44:34;;;;;;;1.38;0.50;;;22.80;90.90;;;;;;5014514;28;20251;-75
2022/07/06 11:47:03;;;;;;;3.50;0.80;;;22.80;91.30;;;;;;5014388;28;20748;-75
2022/07/06 11:49:29;;;;;;;2.33;0.73;;;23.10;91.60;;;;;;5014335;28;20801;-75
2022/07/06 11:51:55;;;;;;;1.80;0.70;;;23.40;91.30;;;;;;5003506;28;20605;-76
2022/07/06 11:54:22;;;;;;;5.05;2.67;;;23.60;91.20;;;;;;5015301;28;20208;-76
2022/07/06 11:56:52;;;;;;;2.45;1.10;;;23.90;91.20;;;;;;5014456;28;20308;-76
2022/07/06 11:59:25;;;;;;;0.98;0.50;;;23.70;91.10;;;;;;5014142;28;20777;-76
2022/07/06 12:02:02;;;;;;;1.45;0.80;;;23.60;91.10;;;;;;5014714;28;20745;-76
2022/07/06 12:04:29;;;;;;;2.85;1.35;;;23.50;91.40;;;;;;5014089;28;20241;-76
2022/07/06 12:06:59;;;;;;;6.53;1.42;;;23.70;91.90;;;;;;5013025;28;20284;-77
2022/07/06 12:09:24;;;;;;;1.83;1.10;;;23.70;91.70;;;;;;5014749;28;20300;-76
2022/07/06 12:11:51;;;;;;;1.92;0.60;;;23.70;91.90;;;;;;5013249;28;20242;-76
2022/07/06 12:14:19;;;;;;;2.40;0.80;;;23.20;92.20;;;;;;5014642;28;20209;-76
2022/07/06 12:16:47;;;;;;;1.67;0.80;;;23.20;92.60;;;;;;5012930;28;20208;-76
2022/07/06 12:19:14;;;;;;;3.15;2.33;;;23.30;92.70;;;;;;5014000;28;20251;-76
2022/07/06 12:21:47;;;;;;;2.97;1.10;;;23.10;93.00;;;;;;5004539;28;20181;-75
2022/07/06 12:24:21;;;;;;;2.50;0.80;;;23.30;93.00;;;;;;5013625;28;20184;-75
2022/07/06 12:26:47;;;;;;;1.60;0.60;;;23.70;93.00;;;;;;5012775;28;20213;-76
2022/07/06 12:29:13;;;;;;;2.92;1.20;;;23.60;92.40;;;;;;5013972;28;20212;-76
2022/07/06 12:31:53;;;;;;;1.38;0.90;;;23.70;92.80;;;;;;5013939;28;20216;-75
2022/07/06 12:34:22;;;;;;;2.35;1.50;;;23.90;92.70;;;;;;5013994;28;20248;-76
2022/07/06 12:36:59;;;;;;;2.97;0.98;;;24.00;92.50;;;;;;5012676;28;20220;-76
2022/07/06 12:39:28;;;;;;;1.42;0.73;;;24.00;91.80;;;;;;5030665;22;20292;-73
2022/07/06 12:41:56;;;;;;;7.63;0.85;;;23.90;91.70;;;;;;5013952;28;20262;-73
2022/07/06 12:44:25;;;;;;;5.88;1.05;;;23.50;92.50;;;;;;5015075;28;20228;-73
2022/07/06 12:47:05;;;;;;;5.72;1.00;;;23.20;92.90;;;;;;5014183;28;20236;-74
2022/07/06 12:49:31;;;;;;;2.28;0.82;;;23.40;93.20;;;;;;5014330;28;20213;-73
2022/07/06 12:52:17;;;;;;;2.17;0.82;;;22.90;93.50;;;;;;5015277;28;20283;-73